sensor_id;sensor_type;location;lat;lon;timestamp;pressure;altitude;pressure_sealevel;temperature;humidity
42411;BME280;28056;51.112;0.984;2024-02-26T00:00:10;98449.58;;;9.08;100.00
42411;BME280;28056;51.112;0.984;2024-02-26T00:02:38;98448.35;;;8.79;100.00
42411;BME280;28056;51.112;0.984;2024-02-26T00:05:06;98448.28;;;8.18;100.00
42411;BME280;28056;51.112;0.984;2024-02-26T00:07:34;98453.28;;;8.87;100.00
42411;BME280;28056;51.112;0.984;2024-02-26T00:10:02;98460.41;;;8.69;100.00
42411;BME280;28056;51.112;0.984;2024-02-26T00:12:30;98455.28;;;8.89;100.00
42411;BME280;28056;51.112;0.984;2024-02-26T00:14:58;98457.16;;;8.80;100.00
42411;BME280;28056;51.112;0.984;2024-02-26T00:17:25;98461.93;;;9.00;100.00
42411;BME280;28056;51.112;0.984;2024-02-26T00:19:51;98462.51;;;9.09;100.00
42411;BME280;28056;51.112;0.984;2024-02-26T00:22:18;98460.74;;;8.43;100.00
42411;BME280;28056;51.112;0.984;2024-02-26T00:24:45;98464.76;;;9.00;100.00
42411;BME280;28056;51.112;0.984;2024-02-26T00:27:13;98465.40;;;9.13;100.00
42411;BME280;28056;51.112;0.984;2024-02-26T00:29:39;98464.43;;;9.15;100.00
42411;BME280;28056;51.112;0.984;2024-02-26T00:32:07;98460.13;;;8.46;100.00
42411;BME280;28056;51.112;0.984;2024-02-26T00:34:35;98459.01;;;8.27;100.00
42411;BME280;28056;51.112;0.984;2024-02-26T00:37:02;98465.57;;;8.59;100.00
42411;BME280;28056;51.112;0.984;2024-02-26T00:39:30;98463.63;;;8.09;100.00
42411;BME280;28056;51.112;0.984;2024-02-26T00:41:57;98465.76;;;8.27;100.00
42411;BME280;28056;51.112;0.984;2024-02-26T00:44:24;98465.38;;;8.63;100.00
42411;BME280;28056;51.112;0.984;2024-02-26T00:46:51;98469.22;;;8.69;100.00
42411;BME280;28056;51.112;0.984;2024-02-26T00:49:23;98472.37;;;9.01;100.00
42411;BME280;28056;51.112;0.984;2024-02-26T00:51:51;98471.53;;;8.81;100.00
42411;BME280;28056;51.112;0.984;2024-02-26T00:54:18;98465.74;;;8.30;100.00
42411;BME280;28056;51.112;0.984;2024-02-26T00:56:45;98472.58;;;8.73;100.00
42411;BME280;28056;51.112;0.984;2024-02-26T00:59:12;98469.66;;;8.69;100.00
42411;BME280;28056;51.112;0.984;2024-02-26T01:04:53;98489.71;;;9.04;100.00
42411;BME280;28056;51.112;0.984;2024-02-26T01:07:20;98482.64;;;8.78;100.00
42411;BME280;28056;51.112;0.984;2024-02-26T01:09:47;98481.32;;;8.42;100.00
42411;BME280;28056;51.112;0.984;2024-02-26T01:12:14;98478.84;;;8.26;100.00
42411;BME280;28056;51.112;0.984;2024-02-26T01:14:42;98487.52;;;8.83;100.00
42411;BME280;28056;51.112;0.984;2024-02-26T01:17:09;98484.43;;;8.54;100.00
42411;BME280;28056;51.112;0.984;2024-02-26T01:19:36;98491.70;;;8.93;100.00
42411;BME280;28056;51.112;0.984;2024-02-26T01:22:04;98491.32;;;9.00;100.00
42411;BME280;28056;51.112;0.984;2024-02-26T01:24:31;98499.90;;;8.03;100.00
42411;BME280;28056;51.112;0.984;2024-02-26T01:26:58;98505.48;;;8.76;100.00
42411;BME280;28056;51.112;0.984;2024-02-26T01:29:25;98504.67;;;8.62;100.00
42411;BME280;28056;51.112;0.984;2024-02-26T01:31:52;98513.84;;;7.95;100.00
42411;BME280;28056;51.112;0.984;2024-02-26T01:34:19;98517.96;;;8.53;100.00
42411;BME280;28056;51.112;0.984;2024-02-26T01:36:46;98523.18;;;8.42;100.00
42411;BME280;28056;51.112;0.984;2024-02-26T01:39:13;98525.31;;;7.94;100.00
42411;BME280;28056;51.112;0.984;2024-02-26T01:41:41;98527.86;;;8.50;100.00
42411;BME280;28056;51.112;0.984;2024-02-26T01:44:08;98524.71;;;8.63;100.00
42411;BME280;28056;51.112;0.984;2024-02-26T01:46:39;98528.41;;;8.80;100.00
42411;BME280;28056;51.112;0.984;2024-02-26T01:49:08;98535.16;;;8.58;100.00
42411;BME280;28056;51.112;0.984;2024-02-26T01:51:37;98536.73;;;8.86;100.00
42411;BME280;28056;51.112;0.984;2024-02-26T01:54:08;98540.92;;;8.74;100.00
42411;BME280;28056;51.112;0.984;2024-02-26T01:56:37;98529.48;;;9.01;100.00
42411;BME280;28056;51.112;0.984;2024-02-26T01:59:05;98548.30;;;8.08;100.00
42411;BME280;28056;51.112;0.984;2024-02-26T02:01:34;98552.34;;;8.49;100.00
42411;BME280;28056;51.112;0.984;2024-02-26T02:04:02;98548.29;;;6.94;100.00
42411;BME280;28056;51.112;0.984;2024-02-26T02:06:30;98563.76;;;7.35;100.00
42411;BME280;28056;51.112;0.984;2024-02-26T02:08:57;98564.60;;;7.21;100.00
42411;BME280;28056;51.112;0.984;2024-02-26T02:11:24;98566.49;;;7.90;100.00
42411;BME280;28056;51.112;0.984;2024-02-26T02:13:51;98564.71;;;7.62;100.00
42411;BME280;28056;51.112;0.984;2024-02-26T02:16:18;98572.45;;;7.69;100.00
42411;BME280;28056;51.112;0.984;2024-02-26T02:18:46;98571.59;;;7.42;100.00
42411;BME280;28056;51.112;0.984;2024-02-26T02:21:18;98572.86;;;7.84;100.00
42411;BME280;28056;51.112;0.984;2024-02-26T02:23:45;98580.41;;;7.21;100.00
42411;BME280;28056;51.112;0.984;2024-02-26T02:26:12;98580.11;;;7.55;100.00
42411;BME280;28056;51.112;0.984;2024-02-26T02:28:40;98582.00;;;7.27;100.00
42411;BME280;28056;51.112;0.984;2024-02-26T02:31:08;98582.14;;;6.86;100.00
42411;BME280;28056;51.112;0.984;2024-02-26T02:33:35;98586.93;;;7.12;100.00
42411;BME280;28056;51.112;0.984;2024-02-26T02:36:04;98590.31;;;7.63;100.00
42411;BME280;28056;51.112;0.984;2024-02-26T02:38:31;98593.46;;;7.99;100.00
42411;BME280;28056;51.112;0.984;2024-02-26T02:40:59;98597.02;;;8.05;100.00
42411;BME280;28056;51.112;0.984;2024-02-26T02:43:26;98602.51;;;8.19;100.00
42411;BME280;28056;51.112;0.984;2024-02-26T02:45:53;98604.42;;;8.02;100.00
42411;BME280;28056;51.112;0.984;2024-02-26T02:48:20;98616.61;;;7.21;100.00
42411;BME280;28056;51.112;0.984;2024-02-26T02:50:47;98616.24;;;7.32;100.00
42411;BME280;28056;51.112;0.984;2024-02-26T02:53:15;98607.35;;;7.16;100.00
42411;BME280;28056;51.112;0.984;2024-02-26T02:55:42;98618.78;;;6.93;100.00
42411;BME280;28056;51.112;0.984;2024-02-26T02:58:10;98623.79;;;6.81;100.00
42411;BME280;28056;51.112;0.984;2024-02-26T03:00:37;98622.93;;;6.26;100.00
42411;BME280;28056;51.112;0.984;2024-02-26T03:03:04;98620.19;;;7.08;100.00
42411;BME280;28056;51.112;0.984;2024-02-26T03:05:32;98630.10;;;7.24;100.00
42411;BME280;28056;51.112;0.984;2024-02-26T03:07:59;98627.51;;;7.43;100.00
42411;BME280;28056;51.112;0.984;2024-02-26T03:10:26;98635.87;;;6.90;100.00
42411;BME280;28056;51.112;0.984;2024-02-26T03:12:54;98630.89;;;7.24;100.00
42411;BME280;28056;51.112;0.984;2024-02-26T03:15:21;98636.94;;;7.07;100.00
42411;BME280;28056;51.112;0.984;2024-02-26T03:17:48;98638.48;;;6.48;100.00
42411;BME280;28056;51.112;0.984;2024-02-26T03:20:15;98640.93;;;6.68;100.00
42411;BME280;28056;51.112;0.984;2024-02-26T03:22:42;98652.03;;;7.24;100.00
42411;BME280;28056;51.112;0.984;2024-02-26T03:25:10;98662.20;;;6.38;100.00
42411;BME280;28056;51.112;0.984;2024-02-26T03:27:38;98661.38;;;7.31;100.00
42411;BME280;28056;51.112;0.984;2024-02-26T03:30:06;98663.97;;;6.80;100.00
42411;BME280;28056;51.112;0.984;2024-02-26T03:32:34;98668.43;;;7.14;100.00
42411;BME280;28056;51.112;0.984;2024-02-26T03:35:01;98672.34;;;7.13;100.00
42411;BME280;28056;51.112;0.984;2024-02-26T03:37:28;98668.46;;;7.50;100.00
42411;BME280;28056;51.112;0.984;2024-02-26T03:39:55;98671.57;;;6.69;100.00
42411;BME280;28056;51.112;0.984;2024-02-26T03:42:22;98684.35;;;6.60;100.00
42411;BME280;28056;51.112;0.984;2024-02-26T03:44:49;98704.78;;;6.47;100.00
42411;BME280;28056;51.112;0.984;2024-02-26T03:47:16;98685.03;;;6.41;100.00
42411;BME280;28056;51.112;0.984;2024-02-26T03:49:44;98694.35;;;6.99;100.00
42411;BME280;28056;51.112;0.984;2024-02-26T03:52:12;98698.98;;;7.55;100.00
42411;BME280;28056;51.112;0.984;2024-02-26T03:54:38;98700.43;;;6.78;100.00
42411;BME280;28056;51.112;0.984;2024-02-26T03:57:05;98708.03;;;7.32;100.00
42411;BME280;28056;51.112;0.984;2024-02-26T03:59:33;98715.43;;;6.87;100.00
42411;BME280;28056;51.112;0.984;2024-02-26T04:02:01;98719.83;;;7.05;100.00
42411;BME280;28056;51.112;0.984;2024-02-26T04:04:28;98727.97;;;6.63;100.00
42411;BME280;28056;51.112;0.984;2024-02-26T04:06:55;98732.77;;;6.93;100.00
42411;BME280;28056;51.112;0.984;2024-02-26T04:09:22;98724.00;;;7.00;100.00
42411;BME280;28056;51.112;0.984;2024-02-26T04:11:50;98735.34;;;6.21;100.00
42411;BME280;28056;51.112;0.984;2024-02-26T04:14:17;98746.38;;;6.63;100.00
42411;BME280;28056;51.112;0.984;2024-02-26T04:16:44;98747.06;;;6.52;100.00
42411;BME280;28056;51.112;0.984;2024-02-26T04:19:11;98755.78;;;6.61;100.00
42411;BME280;28056;51.112;0.984;2024-02-26T04:21:41;98761.34;;;6.89;100.00
42411;BME280;28056;51.112;0.984;2024-02-26T04:24:09;98759.87;;;7.30;100.00
42411;BME280;28056;51.112;0.984;2024-02-26T04:26:37;98766.78;;;6.67;100.00
42411;BME280;28056;51.112;0.984;2024-02-26T04:29:04;98774.16;;;6.28;100.00
42411;BME280;28056;51.112;0.984;2024-02-26T04:31:31;98755.00;;;5.52;100.00
42411;BME280;28056;51.112;0.984;2024-02-26T04:33:58;98770.79;;;6.33;100.00
42411;BME280;28056;51.112;0.984;2024-02-26T04:36:25;98789.95;;;6.36;100.00
42411;BME280;28056;51.112;0.984;2024-02-26T04:38:52;98801.52;;;6.14;100.00
42411;BME280;28056;51.112;0.984;2024-02-26T04:41:20;98809.55;;;6.69;100.00
42411;BME280;28056;51.112;0.984;2024-02-26T04:43:47;98804.54;;;6.20;100.00
42411;BME280;28056;51.112;0.984;2024-02-26T04:46:14;98812.71;;;6.48;100.00
42411;BME280;28056;51.112;0.984;2024-02-26T04:48:42;98814.26;;;7.02;100.00
42411;BME280;28056;51.112;0.984;2024-02-26T04:51:09;98801.21;;;6.66;100.00
42411;BME280;28056;51.112;0.984;2024-02-26T04:53:36;98812.36;;;6.43;100.00
42411;BME280;28056;51.112;0.984;2024-02-26T04:56:04;98811.97;;;6.61;100.00
42411;BME280;28056;51.112;0.984;2024-02-26T04:58:31;98819.77;;;6.10;100.00
42411;BME280;28056;51.112;0.984;2024-02-26T05:00:58;98832.27;;;6.55;100.00
42411;BME280;28056;51.112;0.984;2024-02-26T05:03:26;98836.74;;;6.72;100.00
42411;BME280;28056;51.112;0.984;2024-02-26T05:05:53;98842.72;;;7.19;100.00
42411;BME280;28056;51.112;0.984;2024-02-26T05:08:20;98845.18;;;7.39;100.00
42411;BME280;28056;51.112;0.984;2024-02-26T05:10:47;98836.59;;;6.66;100.00
42411;BME280;28056;51.112;0.984;2024-02-26T05:13:14;98857.39;;;6.22;100.00
42411;BME280;28056;51.112;0.984;2024-02-26T05:15:41;98866.28;;;6.76;100.00
42411;BME280;28056;51.112;0.984;2024-02-26T05:18:08;98865.00;;;6.93;100.00
42411;BME280;28056;51.112;0.984;2024-02-26T05:20:35;98876.49;;;6.68;100.00
42411;BME280;28056;51.112;0.984;2024-02-26T05:23:03;98876.42;;;6.92;100.00
42411;BME280;28056;51.112;0.984;2024-02-26T05:25:31;98881.45;;;7.01;100.00
42411;BME280;28056;51.112;0.984;2024-02-26T05:27:58;98890.78;;;6.51;100.00
42411;BME280;28056;51.112;0.984;2024-02-26T05:30:25;98890.68;;;6.56;100.00
42411;BME280;28056;51.112;0.984;2024-02-26T05:32:52;98886.85;;;6.33;100.00
42411;BME280;28056;51.112;0.984;2024-02-26T05:35:20;98903.79;;;6.23;100.00
42411;BME280;28056;51.112;0.984;2024-02-26T05:37:47;98908.11;;;6.13;100.00
42411;BME280;28056;51.112;0.984;2024-02-26T05:40:14;98903.74;;;6.06;100.00
42411;BME280;28056;51.112;0.984;2024-02-26T05:42:42;98916.28;;;7.06;100.00
42411;BME280;28056;51.112;0.984;2024-02-26T05:45:09;98926.57;;;6.10;100.00
42411;BME280;28056;51.112;0.984;2024-02-26T05:47:37;98919.33;;;6.68;100.00
42411;BME280;28056;51.112;0.984;2024-02-26T05:50:06;98937.24;;;6.19;100.00
42411;BME280;28056;51.112;0.984;2024-02-26T05:52:34;98940.41;;;6.09;100.00
42411;BME280;28056;51.112;0.984;2024-02-26T05:55:01;98944.99;;;6.08;100.00
42411;BME280;28056;51.112;0.984;2024-02-26T05:57:29;98950.12;;;6.32;100.00
42411;BME280;28056;51.112;0.984;2024-02-26T05:59:56;98963.32;;;6.35;100.00
42411;BME280;28056;51.112;0.984;2024-02-26T06:02:23;98969.52;;;6.40;100.00
42411;BME280;28056;51.112;0.984;2024-02-26T06:04:50;98972.12;;;6.62;100.00
42411;BME280;28056;51.112;0.984;2024-02-26T06:07:17;98978.73;;;6.13;100.00
42411;BME280;28056;51.112;0.984;2024-02-26T06:09:45;98977.86;;;6.14;100.00
42411;BME280;28056;51.112;0.984;2024-02-26T06:12:12;98986.92;;;6.14;100.00
42411;BME280;28056;51.112;0.984;2024-02-26T06:14:39;98976.97;;;5.73;100.00
42411;BME280;28056;51.112;0.984;2024-02-26T06:17:06;98992.62;;;6.16;100.00
42411;BME280;28056;51.112;0.984;2024-02-26T06:19:34;99002.89;;;5.84;100.00
42411;BME280;28056;51.112;0.984;2024-02-26T06:22:01;99007.07;;;6.13;100.00
42411;BME280;28056;51.112;0.984;2024-02-26T06:24:28;99010.95;;;6.48;100.00
42411;BME280;28056;51.112;0.984;2024-02-26T06:26:56;99013.80;;;6.01;100.00
42411;BME280;28056;51.112;0.984;2024-02-26T06:29:23;99020.00;;;6.09;100.00
42411;BME280;28056;51.112;0.984;2024-02-26T06:31:51;99024.92;;;5.80;100.00
42411;BME280;28056;51.112;0.984;2024-02-26T06:34:19;99043.33;;;6.50;100.00
42411;BME280;28056;51.112;0.984;2024-02-26T06:36:46;99035.86;;;6.38;100.00
42411;BME280;28056;51.112;0.984;2024-02-26T06:39:13;99044.74;;;6.29;100.00
42411;BME280;28056;51.112;0.984;2024-02-26T06:41:41;99053.32;;;6.65;100.00
42411;BME280;28056;51.112;0.984;2024-02-26T06:44:08;99063.42;;;6.07;100.00
42411;BME280;28056;51.112;0.984;2024-02-26T06:46:35;99057.63;;;5.28;100.00
42411;BME280;28056;51.112;0.984;2024-02-26T06:49:02;99082.38;;;4.87;100.00
42411;BME280;28056;51.112;0.984;2024-02-26T06:51:29;99081.41;;;4.83;100.00
42411;BME280;28056;51.112;0.984;2024-02-26T06:53:56;99095.37;;;4.29;100.00
42411;BME280;28056;51.112;0.984;2024-02-26T06:56:23;99103.62;;;4.43;100.00
42411;BME280;28056;51.112;0.984;2024-02-26T06:58:50;99108.90;;;4.51;100.00
42411;BME280;28056;51.112;0.984;2024-02-26T07:01:18;99102.66;;;3.66;100.00
42411;BME280;28056;51.112;0.984;2024-02-26T07:03:45;99122.05;;;4.39;100.00
42411;BME280;28056;51.112;0.984;2024-02-26T07:06:12;99125.06;;;4.31;100.00
42411;BME280;28056;51.112;0.984;2024-02-26T07:08:39;99124.33;;;4.25;100.00
42411;BME280;28056;51.112;0.984;2024-02-26T07:11:07;99140.77;;;4.44;100.00
42411;BME280;28056;51.112;0.984;2024-02-26T07:13:35;99132.33;;;4.25;100.00
42411;BME280;28056;51.112;0.984;2024-02-26T07:16:04;99140.33;;;3.72;100.00
42411;BME280;28056;51.112;0.984;2024-02-26T07:18:31;99139.35;;;4.27;100.00
42411;BME280;28056;51.112;0.984;2024-02-26T07:21:02;99149.96;;;3.94;100.00
42411;BME280;28056;51.112;0.984;2024-02-26T07:23:29;99160.08;;;3.84;100.00
42411;BME280;28056;51.112;0.984;2024-02-26T07:25:57;99167.31;;;4.51;100.00
42411;BME280;28056;51.112;0.984;2024-02-26T07:28:25;99176.71;;;4.36;100.00
42411;BME280;28056;51.112;0.984;2024-02-26T07:30:52;99172.43;;;4.36;100.00
42411;BME280;28056;51.112;0.984;2024-02-26T07:33:19;99176.65;;;3.28;100.00
42411;BME280;28056;51.112;0.984;2024-02-26T07:35:46;99168.17;;;3.81;100.00
42411;BME280;28056;51.112;0.984;2024-02-26T07:38:13;99182.27;;;4.41;100.00
42411;BME280;28056;51.112;0.984;2024-02-26T07:40:40;99191.78;;;4.30;100.00
42411;BME280;28056;51.112;0.984;2024-02-26T07:43:08;99196.19;;;4.67;100.00
42411;BME280;28056;51.112;0.984;2024-02-26T07:45:34;99200.80;;;3.71;100.00
42411;BME280;28056;51.112;0.984;2024-02-26T07:48:02;99210.02;;;4.02;100.00
42411;BME280;28056;51.112;0.984;2024-02-26T07:50:29;99219.07;;;4.60;100.00
42411;BME280;28056;51.112;0.984;2024-02-26T07:52:56;99220.96;;;4.31;100.00
42411;BME280;28056;51.112;0.984;2024-02-26T07:55:23;99230.29;;;4.68;100.00
42411;BME280;28056;51.112;0.984;2024-02-26T07:57:50;99229.19;;;3.97;100.00
42411;BME280;28056;51.112;0.984;2024-02-26T08:00:19;99222.98;;;4.41;100.00
42411;BME280;28056;51.112;0.984;2024-02-26T08:02:46;99241.17;;;4.43;100.00
42411;BME280;28056;51.112;0.984;2024-02-26T08:05:14;99244.55;;;4.59;100.00
42411;BME280;28056;51.112;0.984;2024-02-26T08:07:41;99260.76;;;4.95;100.00
42411;BME280;28056;51.112;0.984;2024-02-26T08:10:08;99267.18;;;4.77;100.00
42411;BME280;28056;51.112;0.984;2024-02-26T08:12:36;99263.46;;;4.20;100.00
42411;BME280;28056;51.112;0.984;2024-02-26T08:15:04;99269.78;;;3.83;100.00
42411;BME280;28056;51.112;0.984;2024-02-26T08:17:32;99280.69;;;4.95;100.00
42411;BME280;28056;51.112;0.984;2024-02-26T08:20:00;99292.80;;;4.10;100.00
42411;BME280;28056;51.112;0.984;2024-02-26T08:22:27;99277.27;;;4.43;100.00
42411;BME280;28056;51.112;0.984;2024-02-26T08:24:55;99287.27;;;4.27;100.00
42411;BME280;28056;51.112;0.984;2024-02-26T08:27:22;99296.35;;;4.53;100.00
42411;BME280;28056;51.112;0.984;2024-02-26T08:29:49;99311.93;;;4.79;100.00
42411;BME280;28056;51.112;0.984;2024-02-26T08:32:16;99314.76;;;4.97;100.00
42411;BME280;28056;51.112;0.984;2024-02-26T08:34:43;99316.17;;;4.70;100.00
42411;BME280;28056;51.112;0.984;2024-02-26T08:37:11;99319.26;;;4.01;100.00
42411;BME280;28056;51.112;0.984;2024-02-26T08:39:38;99329.01;;;4.16;100.00
42411;BME280;28056;51.112;0.984;2024-02-26T08:42:05;99343.14;;;4.56;100.00
42411;BME280;28056;51.112;0.984;2024-02-26T08:44:33;99345.51;;;4.57;100.00
42411;BME280;28056;51.112;0.984;2024-02-26T08:47:01;99343.11;;;4.58;100.00
42411;BME280;28056;51.112;0.984;2024-02-26T08:49:28;99347.42;;;3.77;100.00
42411;BME280;28056;51.112;0.984;2024-02-26T08:51:55;99344.64;;;3.71;100.00
42411;BME280;28056;51.112;0.984;2024-02-26T08:54:22;99355.14;;;4.58;100.00
42411;BME280;28056;51.112;0.984;2024-02-26T08:56:50;99361.55;;;4.59;100.00
42411;BME280;28056;51.112;0.984;2024-02-26T08:59:17;99346.23;;;4.63;100.00
42411;BME280;28056;51.112;0.984;2024-02-26T09:01:44;99367.16;;;4.30;100.00
42411;BME280;28056;51.112;0.984;2024-02-26T09:04:11;99380.80;;;4.18;100.00
42411;BME280;28056;51.112;0.984;2024-02-26T09:06:38;99382.92;;;3.80;100.00
42411;BME280;28056;51.112;0.984;2024-02-26T09:09:05;99383.42;;;4.20;100.00
42411;BME280;28056;51.112;0.984;2024-02-26T09:11:33;99400.12;;;4.18;100.00
42411;BME280;28056;51.112;0.984;2024-02-26T09:14:00;99406.95;;;4.41;100.00
42411;BME280;28056;51.112;0.984;2024-02-26T09:16:27;99410.18;;;4.90;100.00
42411;BME280;28056;51.112;0.984;2024-02-26T09:18:55;99423.36;;;4.21;100.00
42411;BME280;28056;51.112;0.984;2024-02-26T09:21:21;99425.68;;;4.35;100.00
42411;BME280;28056;51.112;0.984;2024-02-26T09:23:49;99429.93;;;4.51;100.00
42411;BME280;28056;51.112;0.984;2024-02-26T09:26:16;99436.02;;;4.64;100.00
42411;BME280;28056;51.112;0.984;2024-02-26T09:28:43;99441.55;;;4.51;100.00
42411;BME280;28056;51.112;0.984;2024-02-26T09:31:10;99422.62;;;4.53;100.00
42411;BME280;28056;51.112;0.984;2024-02-26T09:33:38;99446.03;;;4.39;100.00
42411;BME280;28056;51.112;0.984;2024-02-26T09:36:05;99459.89;;;4.43;100.00
42411;BME280;28056;51.112;0.984;2024-02-26T09:38:32;99470.33;;;4.92;100.00
42411;BME280;28056;51.112;0.984;2024-02-26T09:41:00;99473.90;;;5.13;100.00
42411;BME280;28056;51.112;0.984;2024-02-26T09:43:32;99462.56;;;4.69;100.00
42411;BME280;28056;51.112;0.984;2024-02-26T09:46:02;99471.49;;;4.45;100.00
42411;BME280;28056;51.112;0.984;2024-02-26T09:48:30;99469.01;;;4.40;100.00
42411;BME280;28056;51.112;0.984;2024-02-26T09:50:58;99484.11;;;4.59;100.00
42411;BME280;28056;51.112;0.984;2024-02-26T09:53:26;99485.73;;;5.11;100.00
42411;BME280;28056;51.112;0.984;2024-02-26T09:55:55;99509.04;;;4.72;100.00
42411;BME280;28056;51.112;0.984;2024-02-26T09:58:22;99518.37;;;4.40;100.00
42411;BME280;28056;51.112;0.984;2024-02-26T10:00:53;99511.71;;;4.39;100.00
42411;BME280;28056;51.112;0.984;2024-02-26T10:03:27;99523.86;;;4.35;100.00
42411;BME280;28056;51.112;0.984;2024-02-26T10:05:55;99530.65;;;5.10;100.00
42411;BME280;28056;51.112;0.984;2024-02-26T10:08:23;99531.12;;;4.69;100.00
42411;BME280;28056;51.112;0.984;2024-02-26T10:10:51;99546.63;;;4.07;100.00
42411;BME280;28056;51.112;0.984;2024-02-26T10:13:18;99554.64;;;4.29;100.00
42411;BME280;28056;51.112;0.984;2024-02-26T10:15:45;99552.76;;;4.28;100.00
42411;BME280;28056;51.112;0.984;2024-02-26T10:18:12;99557.61;;;4.74;100.00
42411;BME280;28056;51.112;0.984;2024-02-26T10:20:39;99563.05;;;5.21;100.00
42411;BME280;28056;51.112;0.984;2024-02-26T10:23:11;99567.70;;;4.54;100.00
42411;BME280;28056;51.112;0.984;2024-02-26T10:25:53;99572.78;;;5.04;100.00
42411;BME280;28056;51.112;0.984;2024-02-26T10:28:22;99585.29;;;5.39;100.00
42411;BME280;28056;51.112;0.984;2024-02-26T10:30:49;99591.23;;;5.18;100.00
42411;BME280;28056;51.112;0.984;2024-02-26T10:33:18;99589.79;;;4.89;100.00
42411;BME280;28056;51.112;0.984;2024-02-26T10:35:46;99597.80;;;5.19;100.00
42411;BME280;28056;51.112;0.984;2024-02-26T10:38:14;99609.07;;;5.19;100.00
42411;BME280;28056;51.112;0.984;2024-02-26T10:40:42;99610.75;;;4.72;100.00
42411;BME280;28056;51.112;0.984;2024-02-26T10:43:09;99617.58;;;5.02;100.00
42411;BME280;28056;51.112;0.984;2024-02-26T10:45:37;99617.05;;;4.40;100.00
42411;BME280;28056;51.112;0.984;2024-02-26T10:48:05;99618.53;;;5.07;100.00
42411;BME280;28056;51.112;0.984;2024-02-26T10:50:36;99632.76;;;5.35;100.00
42411;BME280;28056;51.112;0.984;2024-02-26T10:53:07;99629.71;;;5.30;100.00
42411;BME280;28056;51.112;0.984;2024-02-26T10:55:40;99638.83;;;5.66;100.00
42411;BME280;28056;51.112;0.984;2024-02-26T10:58:09;99642.72;;;5.48;100.00
42411;BME280;28056;51.112;0.984;2024-02-26T11:00:38;99656.39;;;5.97;100.00
42411;BME280;28056;51.112;0.984;2024-02-26T11:03:06;99658.53;;;5.46;100.00
42411;BME280;28056;51.112;0.984;2024-02-26T11:05:34;99649.00;;;5.52;100.00
42411;BME280;28056;51.112;0.984;2024-02-26T11:08:03;99660.26;;;4.93;100.00
42411;BME280;28056;51.112;0.984;2024-02-26T11:10:31;99668.02;;;5.31;100.00
42411;BME280;28056;51.112;0.984;2024-02-26T11:13:00;99671.74;;;5.39;100.00
42411;BME280;28056;51.112;0.984;2024-02-26T11:15:29;99672.37;;;4.88;100.00
42411;BME280;28056;51.112;0.984;2024-02-26T11:17:56;99677.26;;;4.98;100.00
42411;BME280;28056;51.112;0.984;2024-02-26T11:20:25;99688.87;;;5.30;100.00
42411;BME280;28056;51.112;0.984;2024-02-26T11:22:55;99682.76;;;4.88;100.00
42411;BME280;28056;51.112;0.984;2024-02-26T11:25:23;99688.59;;;4.72;100.00
42411;BME280;28056;51.112;0.984;2024-02-26T11:27:53;99701.04;;;4.44;100.00
42411;BME280;28056;51.112;0.984;2024-02-26T11:30:22;99710.58;;;4.50;100.00
42411;BME280;28056;51.112;0.984;2024-02-26T11:32:51;99707.21;;;5.37;100.00
42411;BME280;28056;51.112;0.984;2024-02-26T11:35:20;99715.92;;;5.48;100.00
42411;BME280;28056;51.112;0.984;2024-02-26T11:37:55;99716.10;;;5.69;100.00
42411;BME280;28056;51.112;0.984;2024-02-26T11:40:24;99731.43;;;4.88;100.00
42411;BME280;28056;51.112;0.984;2024-02-26T11:42:52;99749.05;;;5.87;100.00
42411;BME280;28056;51.112;0.984;2024-02-26T11:45:48;99735.33;;;5.29;100.00
42411;BME280;28056;51.112;0.984;2024-02-26T11:48:16;99738.29;;;5.70;100.00
42411;BME280;28056;51.112;0.984;2024-02-26T11:50:48;99748.38;;;5.25;100.00
42411;BME280;28056;51.112;0.984;2024-02-26T11:53:20;99742.83;;;5.55;100.00
42411;BME280;28056;51.112;0.984;2024-02-26T11:55:48;99750.50;;;5.50;100.00
42411;BME280;28056;51.112;0.984;2024-02-26T11:58:39;99759.72;;;5.34;100.00
42411;BME280;28056;51.112;0.984;2024-02-26T12:01:36;99764.44;;;5.23;100.00
42411;BME280;28056;51.112;0.984;2024-02-26T12:04:05;99759.77;;;5.46;100.00
42411;BME280;28056;51.112;0.984;2024-02-26T12:06:42;99760.34;;;4.91;100.00
42411;BME280;28056;51.112;0.984;2024-02-26T12:09:11;99779.71;;;4.83;100.00
42411;BME280;28056;51.112;0.984;2024-02-26T12:11:39;99764.77;;;4.59;100.00
42411;BME280;28056;51.112;0.984;2024-02-26T12:14:08;99772.55;;;4.71;100.00
42411;BME280;28056;51.112;0.984;2024-02-26T12:16:36;99784.73;;;4.72;100.00
42411;BME280;28056;51.112;0.984;2024-02-26T12:19:04;99782.25;;;4.55;100.00
42411;BME280;28056;51.112;0.984;2024-02-26T12:21:34;99781.01;;;4.58;100.00
42411;BME280;28056;51.112;0.984;2024-02-26T12:24:18;99788.42;;;5.12;100.00
42411;BME280;28056;51.112;0.984;2024-02-26T12:26:46;99803.55;;;4.76;100.00
42411;BME280;28056;51.112;0.984;2024-02-26T12:29:14;99804.07;;;5.13;100.00
42411;BME280;28056;51.112;0.984;2024-02-26T12:31:42;99809.54;;;5.16;100.00
42411;BME280;28056;51.112;0.984;2024-02-26T12:34:10;99808.56;;;5.35;100.00
42411;BME280;28056;51.112;0.984;2024-02-26T12:36:38;99808.64;;;5.42;100.00
42411;BME280;28056;51.112;0.984;2024-02-26T12:39:06;99807.55;;;4.30;100.00
42411;BME280;28056;51.112;0.984;2024-02-26T12:41:40;99814.09;;;4.88;100.00
42411;BME280;28056;51.112;0.984;2024-02-26T12:44:08;99815.22;;;4.23;100.00
42411;BME280;28056;51.112;0.984;2024-02-26T12:46:35;99825.07;;;4.72;100.00
42411;BME280;28056;51.112;0.984;2024-02-26T12:49:02;99817.82;;;4.60;100.00
42411;BME280;28056;51.112;0.984;2024-02-26T12:51:29;99825.31;;;5.03;100.00
42411;BME280;28056;51.112;0.984;2024-02-26T12:53:57;99840.11;;;4.40;100.00
42411;BME280;28056;51.112;0.984;2024-02-26T12:56:26;99828.84;;;4.56;100.00
42411;BME280;28056;51.112;0.984;2024-02-26T12:58:55;99841.99;;;4.84;100.00
42411;BME280;28056;51.112;0.984;2024-02-26T13:01:24;99842.54;;;4.14;100.00
42411;BME280;28056;51.112;0.984;2024-02-26T13:03:53;99855.35;;;4.80;100.00
42411;BME280;28056;51.112;0.984;2024-02-26T13:06:21;99857.29;;;4.85;100.00